createdAt,value
2017-10-25T00:02:13.708Z,86.77
2017-10-25T00:04:42.790Z,86.71
2017-10-25T00:07:11.098Z,86.57
2017-10-25T00:09:39.410Z,86.22
2017-10-25T00:12:07.710Z,86.20
2017-10-25T00:14:36.022Z,86.11
2017-10-25T00:17:05.094Z,86.18
2017-10-25T00:19:33.407Z,86.42
2017-10-25T00:22:01.710Z,86.33
2017-10-25T00:24:30.036Z,86.30
2017-10-25T00:26:59.101Z,86.24
2017-10-25T00:29:27.422Z,86.02
2017-10-25T00:31:56.485Z,86.10
2017-10-25T00:34:24.793Z,86.14
2017-10-25T00:36:53.873Z,86.19
2017-10-25T00:39:22.949Z,86.26
2017-10-25T00:41:51.267Z,86.31
2017-10-25T00:44:20.339Z,86.61
2017-10-25T00:46:49.409Z,86.62
2017-10-25T00:49:17.718Z,86.70
2017-10-25T00:51:46.796Z,86.53
2017-10-25T00:54:15.112Z,86.75
2017-10-25T00:56:43.423Z,86.94
2017-10-25T00:59:11.754Z,86.99
2017-10-25T01:01:40.814Z,87.12
2017-10-25T01:04:09.135Z,86.82
2017-10-25T01:06:37.451Z,87.05
2017-10-25T01:09:05.773Z,87.05
2017-10-25T01:11:34.839Z,86.97
2017-10-25T01:14:03.162Z,87.12
2017-10-25T01:16:31.477Z,86.95
2017-10-25T01:18:59.790Z,87.16
2017-10-25T01:21:28.101Z,87.20
2017-10-25T01:23:56.425Z,87.23
2017-10-25T01:26:24.726Z,87.26
2017-10-25T01:28:53.812Z,87.39
2017-10-25T01:31:22.121Z,87.16
2017-10-25T01:33:50.429Z,87.12
2017-10-25T01:36:18.796Z,86.93
2017-10-25T01:38:47.101Z,86.89
2017-10-25T01:41:15.397Z,86.78
2017-10-25T01:43:43.706Z,86.87
2017-10-25T01:46:12.009Z,87.04
2017-10-25T01:48:41.150Z,87.22
2017-10-25T01:51:10.230Z,87.24
2017-10-25T01:53:38.561Z,86.98
2017-10-25T01:56:06.865Z,86.92
2017-10-25T01:58:35.206Z,86.75
2017-10-25T02:01:03.517Z,86.66
2017-10-25T02:03:31.827Z,86.45
2017-10-25T02:06:00.159Z,86.35
2017-10-25T02:08:28.480Z,86.13
2017-10-25T02:10:56.784Z,85.94
2017-10-25T02:13:25.851Z,86.00
2017-10-25T02:15:54.161Z,85.79
2017-10-25T02:18:23.279Z,85.61
2017-10-25T02:20:51.602Z,85.48
2017-10-25T02:23:19.925Z,85.50
2017-10-25T02:25:49.130Z,85.62
2017-10-25T02:28:17.432Z,85.52
2017-10-25T02:30:46.514Z,85.61
2017-10-25T02:33:14.807Z,85.50
2017-10-25T02:35:43.113Z,85.47
2017-10-25T02:38:11.410Z,85.39
2017-10-25T02:40:40.488Z,85.31
2017-10-25T02:43:09.556Z,85.25
2017-10-25T02:45:37.853Z,85.30
2017-10-25T02:48:06.149Z,85.29
2017-10-25T02:50:35.231Z,85.19
2017-10-25T02:53:04.313Z,85.20
2017-10-25T02:55:32.630Z,85.21
2017-10-25T02:58:01.701Z,85.32
2017-10-25T03:00:30.775Z,85.60
2017-10-25T03:02:59.072Z,85.35
2017-10-25T03:05:27.368Z,85.35
2017-10-25T03:07:56.440Z,85.33
2017-10-25T03:10:24.750Z,85.34
2017-10-25T03:12:53.068Z,85.26
2017-10-25T03:15:21.370Z,85.40
2017-10-25T03:17:49.681Z,85.48
2017-10-25T03:20:17.999Z,85.47
2017-10-25T03:22:46.309Z,85.50
2017-10-25T03:25:15.386Z,85.15
2017-10-25T03:27:43.690Z,85.25
2017-10-25T03:30:12.755Z,85.10
2017-10-25T03:32:41.070Z,85.20
2017-10-25T03:35:10.134Z,85.09
2017-10-25T03:37:38.446Z,85.04
2017-10-25T03:40:06.745Z,85.00
2017-10-25T03:42:35.064Z,85.08
2017-10-25T03:45:03.364Z,85.22
2017-10-25T03:47:32.449Z,85.08
2017-10-25T03:50:00.737Z,85.13
2017-10-25T03:52:29.810Z,85.29
2017-10-25T03:54:58.127Z,85.48
2017-10-25T03:57:26.446Z,85.48
2017-10-25T03:59:54.738Z,85.16
2017-10-25T04:02:23.075Z,85.01
2017-10-25T04:04:51.371Z,85.06
2017-10-25T04:07:19.690Z,85.04
2017-10-25T04:09:48.761Z,84.87
2017-10-25T04:12:17.060Z,84.69
2017-10-25T04:14:46.117Z,84.64
2017-10-25T04:17:14.431Z,84.57
2017-10-25T04:19:43.505Z,84.57
2017-10-25T04:22:11.834Z,84.88
2017-10-25T04:24:40.134Z,85.06
2017-10-25T04:27:08.438Z,85.08
2017-10-25T04:29:36.738Z,85.31
2017-10-25T04:32:05.813Z,85.09
2017-10-25T04:34:34.104Z,85.26
2017-10-25T04:37:02.426Z,85.10
2017-10-25T04:39:30.725Z,85.21
2017-10-25T04:41:59.029Z,84.89
2017-10-25T04:44:27.326Z,85.00
2017-10-25T04:46:56.406Z,85.21
2017-10-25T04:49:24.702Z,85.39
2017-10-25T04:51:53.022Z,85.41
2017-10-25T04:54:21.328Z,85.47
2017-10-25T04:56:49.660Z,85.06
2017-10-25T04:59:17.969Z,85.23
2017-10-25T05:01:46.299Z,85.27
2017-10-25T05:04:14.593Z,84.81
2017-10-25T05:06:42.897Z,84.78
2017-10-25T05:09:11.199Z,84.55
2017-10-25T05:11:39.507Z,84.43
2017-10-25T05:14:07.813Z,84.55
2017-10-25T05:16:36.150Z,84.55
2017-10-25T05:19:04.471Z,84.54
2017-10-25T05:21:32.784Z,84.51
2017-10-25T05:24:01.102Z,84.52
2017-10-25T05:26:29.421Z,84.33
2017-10-25T05:28:57.722Z,84.48
2017-10-25T05:31:26.809Z,84.65
2017-10-25T05:33:55.129Z,84.72
2017-10-25T05:36:23.437Z,84.75
2017-10-25T05:38:51.749Z,84.81
2017-10-25T05:41:20.048Z,85.21
2017-10-25T05:43:49.122Z,84.93
2017-10-25T05:46:17.421Z,85.09
2017-10-25T05:48:45.737Z,84.69
2017-10-25T05:51:14.030Z,84.24
2017-10-25T05:53:42.342Z,83.98
2017-10-25T05:56:11.406Z,83.96
2017-10-25T05:58:39.714Z,83.42
2017-10-25T06:01:08.778Z,83.33
2017-10-25T06:03:37.091Z,83.40
2017-10-25T06:06:05.381Z,83.34
2017-10-25T06:08:33.689Z,83.12
2017-10-25T06:11:01.990Z,83.09
2017-10-25T06:13:30.311Z,83.36
2017-10-25T06:15:58.605Z,83.28
2017-10-25T06:18:26.915Z,83.15
2017-10-25T06:20:55.213Z,82.62
2017-10-25T06:23:23.535Z,82.04
2017-10-25T06:25:51.834Z,81.56
2017-10-25T06:28:20.149Z,81.48
2017-10-25T06:30:49.208Z,81.81
2017-10-25T06:33:17.526Z,82.01
2017-10-25T06:35:46.593Z,82.04
2017-10-25T06:38:14.903Z,82.31
2017-10-25T06:40:43.961Z,81.97
2017-10-25T06:43:12.273Z,82.51
2017-10-25T06:45:41.332Z,82.44
2017-10-25T06:48:09.641Z,82.10
2017-10-25T06:50:38.702Z,81.93
2017-10-25T06:53:07.012Z,81.92
2017-10-25T06:55:36.072Z,81.59
2017-10-25T06:58:04.397Z,81.80
2017-10-25T07:00:32.718Z,81.04
2017-10-25T07:03:01.809Z,80.76
2017-10-25T07:05:30.108Z,80.26
2017-10-25T07:07:58.416Z,80.23
2017-10-25T07:10:27.478Z,79.54
2017-10-25T07:12:55.799Z,79.28
2017-10-25T07:15:24.088Z,78.81
2017-10-25T07:17:52.384Z,78.20
2017-10-25T07:20:20.673Z,78.14
2017-10-25T07:22:48.982Z,77.98
2017-10-25T07:25:17.273Z,77.94
2017-10-25T07:27:46.353Z,78.43
2017-10-25T07:30:14.649Z,78.58
2017-10-25T07:32:43.713Z,78.29
2017-10-25T07:35:12.002Z,78.37
2017-10-25T07:37:40.324Z,77.90
2017-10-25T07:40:08.626Z,78.78
2017-10-25T07:42:36.941Z,79.27
2017-10-25T07:45:06.026Z,79.48
2017-10-25T07:47:34.321Z,80.02
2017-10-25T07:50:03.386Z,79.98
2017-10-25T07:52:31.690Z,79.61
2017-10-25T07:55:00.822Z,79.69
2017-10-25T07:57:29.125Z,79.32
2017-10-25T07:59:57.457Z,79.75
2017-10-25T08:02:25.761Z,80.37
2017-10-25T08:04:54.070Z,80.54
2017-10-25T08:07:22.390Z,80.58
2017-10-25T08:09:50.688Z,80.28
2017-10-25T08:12:18.985Z,79.78
2017-10-25T08:14:47.296Z,79.66
2017-10-25T08:17:15.598Z,79.23
2017-10-25T08:19:43.896Z,79.03
2017-10-25T08:22:12.184Z,78.65
2017-10-25T08:24:40.485Z,78.36
2017-10-25T08:27:08.785Z,78.07
2017-10-25T08:29:37.888Z,78.31
2017-10-25T08:32:06.954Z,78.21
2017-10-25T08:34:35.249Z,77.88
2017-10-25T08:37:04.323Z,77.73
2017-10-25T08:39:32.636Z,77.25
2017-10-25T08:42:00.944Z,77.67
2017-10-25T08:44:29.245Z,77.72
2017-10-25T08:46:57.550Z,77.52
2017-10-25T08:49:26.624Z,75.40
2017-10-25T08:51:54.927Z,76.08
2017-10-25T08:54:23.998Z,74.96
2017-10-25T08:56:52.299Z,74.97
2017-10-25T08:59:21.369Z,74.93
2017-10-25T09:01:49.665Z,74.54
2017-10-25T09:04:18.747Z,75.18
2017-10-25T09:06:47.051Z,74.68
2017-10-25T09:09:16.130Z,72.14
2017-10-25T09:11:44.430Z,70.56
2017-10-25T09:14:12.729Z,72.23
2017-10-25T09:16:41.021Z,73.19
2017-10-25T09:19:09.338Z,72.70
2017-10-25T09:21:38.400Z,72.29
2017-10-25T09:24:06.709Z,72.07
2017-10-25T09:26:35.017Z,70.22
2017-10-25T09:29:03.326Z,71.35
2017-10-25T09:31:31.617Z,71.32
2017-10-25T09:33:59.936Z,72.37
2017-10-25T09:36:28.997Z,72.49
2017-10-25T09:38:57.306Z,73.12
2017-10-25T09:41:26.367Z,72.60
2017-10-25T09:43:54.702Z,70.54
2017-10-25T09:46:22.998Z,70.19
2017-10-25T09:48:51.297Z,68.89
2017-10-25T09:51:19.612Z,68.36
2017-10-25T09:53:47.924Z,68.12
2017-10-25T09:56:16.265Z,67.20
2017-10-25T09:58:44.572Z,68.01
2017-10-25T10:01:12.888Z,68.48
2017-10-25T10:03:41.194Z,69.81
2017-10-25T10:06:10.285Z,68.59
2017-10-25T10:08:38.605Z,68.43
2017-10-25T10:11:06.910Z,67.85
2017-10-25T10:13:35.237Z,66.66
2017-10-25T10:16:03.538Z,66.60
2017-10-25T10:18:31.846Z,67.44
2017-10-25T10:21:00.154Z,67.13
2017-10-25T10:23:29.225Z,68.06
2017-10-25T10:25:57.532Z,68.66
2017-10-25T10:28:26.593Z,68.04
2017-10-25T10:30:54.896Z,67.25
2017-10-25T10:33:23.956Z,67.65
2017-10-25T10:35:52.271Z,66.84
2017-10-25T10:38:21.336Z,66.23
2017-10-25T10:40:49.655Z,63.77
2017-10-25T10:43:17.950Z,64.22
2017-10-25T10:45:46.270Z,64.12
2017-10-25T10:48:14.564Z,64.26
2017-10-25T10:50:43.638Z,64.69
2017-10-25T10:53:11.938Z,63.18
2017-10-25T10:55:41.004Z,63.32
2017-10-25T10:58:09.338Z,62.54
2017-10-25T11:00:37.644Z,61.74
2017-10-25T11:03:05.942Z,61.31
2017-10-25T11:05:34.276Z,60.82
2017-10-25T11:08:02.581Z,60.81
2017-10-25T11:10:30.868Z,60.20
2017-10-25T11:12:59.990Z,58.88
2017-10-25T11:15:29.052Z,59.46
2017-10-25T11:17:57.351Z,59.78
2017-10-25T11:20:25.657Z,60.71
2017-10-25T11:22:53.963Z,60.47
2017-10-25T11:25:22.261Z,60.47
2017-10-25T11:27:50.561Z,60.75
2017-10-25T11:30:18.863Z,60.84
2017-10-25T11:32:47.962Z,61.36
2017-10-25T11:35:16.298Z,60.99
2017-10-25T11:37:44.608Z,60.17
2017-10-25T11:40:13.665Z,60.05
2017-10-25T11:42:41.973Z,59.33
2017-10-25T11:45:11.043Z,57.66
2017-10-25T11:47:39.341Z,58.98
2017-10-25T11:50:08.407Z,59.09
2017-10-25T11:52:36.718Z,59.81
2017-10-25T11:55:05.787Z,59.66
2017-10-25T11:57:34.107Z,58.27
2017-10-25T12:00:02.401Z,57.58
2017-10-25T12:02:30.706Z,59.29
2017-10-25T12:04:58.997Z,59.64
2017-10-25T12:07:27.312Z,60.13
2017-10-25T12:09:55.606Z,59.75
2017-10-25T12:12:23.928Z,58.25
2017-10-25T12:14:52.216Z,59.29
2017-10-25T12:17:20.516Z,60.72
2017-10-25T12:19:48.809Z,61.75
2017-10-25T12:22:17.115Z,61.94
2017-10-25T12:24:45.424Z,61.32
2017-10-25T12:27:13.743Z,60.32
2017-10-25T12:29:42.051Z,60.36
2017-10-25T12:32:10.361Z,60.19
2017-10-25T12:34:39.437Z,59.10
2017-10-25T12:37:07.742Z,57.58
2017-10-25T12:39:36.807Z,58.10
2017-10-25T12:42:05.128Z,57.78
2017-10-25T12:44:33.425Z,59.24
2017-10-25T12:47:01.728Z,60.63
2017-10-25T12:49:30.024Z,61.14
2017-10-25T12:51:58.313Z,60.99
2017-10-25T12:54:28.577Z,59.98
2017-10-25T12:56:56.876Z,59.97
2017-10-25T12:59:25.202Z,59.28
2017-10-25T13:01:54.266Z,58.39
2017-10-25T13:04:23.338Z,59.09
2017-10-25T13:06:51.641Z,58.82
2017-10-25T13:09:19.948Z,59.45
2017-10-25T13:11:49.493Z,58.80
2017-10-25T13:14:20.501Z,59.59
2017-10-25T13:16:52.465Z,59.71
2017-10-25T13:19:20.764Z,60.49
2017-10-25T13:21:49.079Z,60.36
2017-10-25T13:24:17.391Z,61.08
2017-10-25T13:26:46.509Z,61.32
2017-10-25T13:29:14.820Z,61.81
2017-10-25T13:31:43.887Z,61.47
2017-10-25T13:34:12.190Z,61.62
2017-10-25T13:36:40.485Z,62.23
2017-10-25T13:39:08.790Z,62.08
2017-10-25T13:41:37.859Z,62.81
2017-10-25T13:44:06.168Z,62.21
2017-10-25T13:46:34.480Z,62.44
2017-10-25T13:49:02.793Z,62.75
2017-10-25T13:51:31.091Z,62.96
2017-10-25T13:54:00.164Z,63.06
2017-10-25T13:56:28.465Z,63.73
2017-10-25T13:58:57.538Z,63.31
2017-10-25T14:01:25.856Z,63.26
2017-10-25T14:03:54.178Z,62.49
2017-10-25T14:06:22.477Z,62.80
2017-10-25T14:08:51.562Z,63.18
2017-10-25T14:11:20.647Z,63.54
2017-10-25T14:13:48.948Z,63.43
2017-10-25T14:16:18.013Z,63.83
2017-10-25T14:18:46.326Z,63.38
2017-10-25T14:21:15.381Z,63.93
2017-10-25T14:23:43.690Z,63.87
2017-10-25T14:26:12.762Z,63.69
2017-10-25T14:28:53.564Z,63.94
2017-10-25T14:31:21.862Z,64.56
2017-10-25T14:33:50.189Z,64.36
2017-10-25T14:36:18.502Z,64.59
2017-10-25T14:38:46.826Z,64.50
2017-10-25T14:41:15.154Z,63.89
2017-10-25T14:43:44.226Z,64.51
2017-10-25T14:46:12.522Z,65.11
2017-10-25T14:48:41.594Z,65.54
2017-10-25T14:51:09.910Z,65.56
2017-10-25T14:53:38.225Z,66.03
2017-10-25T14:56:06.527Z,66.08
2017-10-25T14:58:34.862Z,65.95
2017-10-25T15:01:03.174Z,66.17
2017-10-25T15:03:31.502Z,66.50
2017-10-25T15:05:59.797Z,66.91
2017-10-25T15:08:28.109Z,67.15
2017-10-25T15:10:56.398Z,67.45
2017-10-25T15:13:25.468Z,68.19
2017-10-25T15:15:53.776Z,68.60
2017-10-25T15:18:22.913Z,68.92
2017-10-25T15:20:51.242Z,69.73
2017-10-25T15:23:19.555Z,70.29
2017-10-25T15:25:47.875Z,70.72
2017-10-25T15:28:16.186Z,71.49
2017-10-25T15:30:45.251Z,72.26
2017-10-25T15:33:13.562Z,72.74
2017-10-25T15:35:42.631Z,73.41
2017-10-25T15:38:10.942Z,73.80
2017-10-25T15:40:39.249Z,74.28
2017-10-25T15:43:07.549Z,74.53
2017-10-25T15:45:35.839Z,74.87
2017-10-25T15:48:04.137Z,75.18
2017-10-25T15:50:33.211Z,75.31
2017-10-25T15:53:01.517Z,75.58
2017-10-25T15:55:30.580Z,75.76
2017-10-25T15:57:58.912Z,76.17
2017-10-25T16:00:27.210Z,76.72
2017-10-25T16:02:55.502Z,77.26
2017-10-25T16:05:23.818Z,77.90
2017-10-25T16:07:52.879Z,77.59
2017-10-25T16:10:21.202Z,77.89
2017-10-25T16:12:49.499Z,77.91
2017-10-25T16:15:17.803Z,78.43
2017-10-25T16:17:46.100Z,78.35
2017-10-25T16:20:14.418Z,78.60
2017-10-25T16:22:42.718Z,78.90
2017-10-25T16:25:11.017Z,79.11
2017-10-25T16:27:39.313Z,79.46
2017-10-25T16:30:07.616Z,79.79
2017-10-25T16:32:35.916Z,80.12
2017-10-25T16:35:04.226Z,80.29
2017-10-25T16:37:32.533Z,79.91
2017-10-25T16:40:01.601Z,79.92
2017-10-25T16:42:29.913Z,80.34
2017-10-25T16:44:58.986Z,80.09
2017-10-25T16:47:27.287Z,80.38
2017-10-25T16:49:56.356Z,80.91
2017-10-25T16:52:24.650Z,81.06
2017-10-25T16:54:53.712Z,81.24
2017-10-25T16:57:22.005Z,81.51
2017-10-25T16:59:50.309Z,81.45
2017-10-25T17:02:18.596Z,81.69
2017-10-25T17:04:47.516Z,81.66
2017-10-25T17:07:15.813Z,81.57
2017-10-25T17:09:44.122Z,81.95
2017-10-25T17:12:12.428Z,82.56
2017-10-25T17:14:40.747Z,83.10
2017-10-25T17:17:09.082Z,83.54
2017-10-25T17:19:37.405Z,83.92
2017-10-25T17:22:05.726Z,84.60
2017-10-25T17:24:34.040Z,84.97
2017-10-25T17:27:02.341Z,85.20
2017-10-25T17:29:30.667Z,85.18
2017-10-25T17:31:58.982Z,85.28
2017-10-25T17:34:27.304Z,85.07
2017-10-25T17:36:55.613Z,85.32
2017-10-25T17:39:23.942Z,85.48
2017-10-25T17:41:53.013Z,85.31
2017-10-25T17:44:21.325Z,85.44
2017-10-25T17:46:50.380Z,86.14
2017-10-25T17:49:18.684Z,86.28
2017-10-25T17:51:47.758Z,86.52
2017-10-25T17:54:16.074Z,86.56
2017-10-25T17:56:45.149Z,86.66
2017-10-25T17:59:14.236Z,86.74
2017-10-25T18:01:42.552Z,86.69
2017-10-25T18:04:10.860Z,86.57
2017-10-25T18:06:39.162Z,86.26
2017-10-25T18:09:07.484Z,86.07
2017-10-25T18:11:35.790Z,86.26
2017-10-25T18:14:04.106Z,86.39
2017-10-25T18:16:32.415Z,86.91
2017-10-25T18:19:00.716Z,87.07
2017-10-25T18:21:29.034Z,87.47
2017-10-25T18:23:57.344Z,87.60
2017-10-25T18:26:25.661Z,88.11
2017-10-25T18:28:53.968Z,88.29
2017-10-25T18:31:22.286Z,88.38
2017-10-25T18:33:50.604Z,88.64
2017-10-25T18:36:18.935Z,89.03
2017-10-25T18:38:47.239Z,89.05
2017-10-25T18:41:15.564Z,89.47
2017-10-25T18:43:44.640Z,89.83
2017-10-25T18:46:13.482Z,90.11
2017-10-25T18:48:41.793Z,90.33
2017-10-25T18:51:10.140Z,89.98
2017-10-25T18:53:38.440Z,89.29
2017-10-25T18:56:06.764Z,89.05
2017-10-25T18:58:35.833Z,88.82
2017-10-25T19:01:04.143Z,88.57
2017-10-25T19:03:33.215Z,88.33
2017-10-25T19:06:01.549Z,88.13
2017-10-25T19:08:29.862Z,88.26
2017-10-25T19:10:58.171Z,88.07
2017-10-25T19:13:27.249Z,87.91
2017-10-25T19:15:56.330Z,88.06
2017-10-25T19:18:24.637Z,87.88
2017-10-25T19:20:53.734Z,87.59
2017-10-25T19:23:22.798Z,87.58
2017-10-25T19:25:51.122Z,87.64
2017-10-25T19:28:19.421Z,87.80
2017-10-25T19:30:47.735Z,88.08
2017-10-25T19:33:16.059Z,88.77
2017-10-25T19:35:44.378Z,89.34
2017-10-25T19:38:12.681Z,89.51
2017-10-25T19:40:41.786Z,89.72
2017-10-25T19:43:10.848Z,89.45
2017-10-25T19:45:39.157Z,89.62
2017-10-25T19:48:13.204Z,89.80
2017-10-25T19:50:41.509Z,89.78
2017-10-25T19:53:09.825Z,89.81
2017-10-25T19:55:38.895Z,90.35
2017-10-25T19:58:07.210Z,90.67
2017-10-25T20:00:35.536Z,91.17
2017-10-25T20:03:03.851Z,91.30
2017-10-25T20:05:32.175Z,91.66
2017-10-25T20:08:00.499Z,91.69
2017-10-25T20:10:29.577Z,91.69
2017-10-25T20:12:57.897Z,91.60
2017-10-25T20:15:26.197Z,91.61
2017-10-25T20:17:54.514Z,91.73
2017-10-25T20:20:22.836Z,91.96
2017-10-25T20:22:51.145Z,92.06
2017-10-25T20:25:19.453Z,91.96
2017-10-25T20:27:48.538Z,91.92
2017-10-25T20:30:16.855Z,92.17
2017-10-25T20:32:45.184Z,92.13
2017-10-25T20:35:13.490Z,92.15
2017-10-25T20:37:42.581Z,92.44
2017-10-25T20:40:10.897Z,92.65
2017-10-25T20:42:39.215Z,92.73
2017-10-25T20:45:07.527Z,92.72
2017-10-25T20:47:35.842Z,92.91
2017-10-25T20:50:04.159Z,92.79
2017-10-25T20:52:33.265Z,92.91
2017-10-25T20:55:02.900Z,93.12
2017-10-25T20:57:31.248Z,93.13
2017-10-25T21:00:00.340Z,93.06
2017-10-25T21:02:29.471Z,93.14
2017-10-25T21:04:57.786Z,93.42
2017-10-25T21:07:26.121Z,93.53
2017-10-25T21:09:54.436Z,93.69
2017-10-25T21:12:22.754Z,93.71
2017-10-25T21:14:51.837Z,93.84
2017-10-25T21:17:20.916Z,94.01
2017-10-25T21:19:49.231Z,93.91
2017-10-25T21:22:17.569Z,93.98
2017-10-25T21:24:45.867Z,94.10
2017-10-25T21:27:14.958Z,93.91
2017-10-25T21:29:43.279Z,93.97
2017-10-25T21:32:11.584Z,94.07
2017-10-25T21:34:39.893Z,94.13
2017-10-25T21:37:08.969Z,94.33
2017-10-25T21:39:37.277Z,94.38
2017-10-25T21:42:06.363Z,94.34
2017-10-25T21:44:35.448Z,94.36
2017-10-25T21:47:03.754Z,94.45
2017-10-25T21:49:32.105Z,94.50
2017-10-25T21:52:00.411Z,94.45
2017-10-25T21:54:28.726Z,94.52
2017-10-25T21:56:57.034Z,94.51
2017-10-25T21:59:25.354Z,94.58
2017-10-25T22:01:53.674Z,94.65
2017-10-25T22:04:22.013Z,94.58
2017-10-25T22:06:50.341Z,94.46
2017-10-25T22:09:18.656Z,94.47
2017-10-25T22:11:46.963Z,94.51
2017-10-25T22:14:15.277Z,94.65
2017-10-25T22:16:43.590Z,94.78
2017-10-25T22:19:11.907Z,94.88
2017-10-25T22:21:40.217Z,94.78
2017-10-25T22:24:09.298Z,94.96
2017-10-25T22:26:37.625Z,94.95
2017-10-25T22:29:05.935Z,94.92
2017-10-25T22:31:34.248Z,94.79
2017-10-25T22:34:03.334Z,94.37
2017-10-25T22:36:31.644Z,94.08
2017-10-25T22:38:59.960Z,93.81
2017-10-25T22:41:28.274Z,93.81
2017-10-25T22:43:57.349Z,93.69
2017-10-25T22:46:25.662Z,93.66
2017-10-25T22:48:53.975Z,93.63
2017-10-25T22:51:22.280Z,93.45
2017-10-25T22:53:50.590Z,93.12
2017-10-25T22:56:19.693Z,93.03
2017-10-25T22:58:48.017Z,92.99
2017-10-25T23:01:16.323Z,93.13
2017-10-25T23:03:45.415Z,93.38
2017-10-25T23:06:13.719Z,93.37
2017-10-25T23:08:42.043Z,93.37
2017-10-25T23:11:10.353Z,93.53
2017-10-25T23:13:38.697Z,93.66
2017-10-25T23:16:07.010Z,93.53
2017-10-25T23:18:36.089Z,93.72
2017-10-25T23:21:04.395Z,93.76
2017-10-25T23:23:33.477Z,93.87
2017-10-25T23:26:02.539Z,93.81
2017-10-25T23:28:30.849Z,93.86
2017-10-25T23:30:59.926Z,93.52
2017-10-25T23:33:28.232Z,93.37
2017-10-25T23:35:57.315Z,93.01
2017-10-25T23:38:26.394Z,93.18
2017-10-25T23:40:54.701Z,93.35
2017-10-25T23:43:23.787Z,93.67
2017-10-25T23:45:52.852Z,93.32
2017-10-25T23:48:21.170Z,93.01
2017-10-25T23:50:49.474Z,92.99
2017-10-25T23:53:17.780Z,93.08
2017-10-25T23:55:46.086Z,92.74
2017-10-25T23:58:15.183Z,92.59
